KTRI/TRI METAR and TAF weather

Enter ICAO airport designator
Station Type Date Time Source
KTRI METAR 2022/10/01 06:53 UTC NOAA

KTRI 010653Z 29006KT 5SM RA BR BKN022 BKN030 OVC039 11/10 A2985 RMK AO2 SLP090 P0008 T01110100


Station Type Date Time Source
KTRI Decoded METAR 2022/10/01 06:53 UTC NOAA

TRI-CITY REGIONAL AIRPORT, TN, United States (KTRI) 36-28N 082-24W 474M
Oct 01, 2022 - 02:53 AM EDT / 2022.10.01 0653 UTC
Wind: from the WNW (290 degrees) at 7 MPH (6 KT):0
Visibility: 5 mile(s):0
Sky conditions: overcast
Weather: rain; mist
Precipitation last hour: 0.08 inches
Temperature: 52.0 F (11.1 C)
Dew Point: 50.0 F (10.0 C)
Relative Humidity: 92%
Pressure (altimeter): 29.85 in. Hg (1010 hPa)
ob: KTRI 010653Z 29006KT 5SM RA BR BKN022 BKN030 OVC039 11/10 A2985 RMK AO2 SLP090 P0008 T01110100
cycle: 7

Station Type Date Time Source
KTRI TAF 2022/10/01 06:22 UTC NOAA

TAF KTRI 010520Z 0106/0206 33003KT 6SM -RA BR SCT020 BKN035
TEMPO 0106/0109 4SM RA BKN025
FM010900 34007KT 5SM RA BR OVC015
FM011400 33006KT 6SM BR VCSH OVC015 PROB30 0115/0121 3SM -SHRA BR OVC008
FM020200 VRB03KT P6SM VCSH OVC009

Example: see airport list